createdAt,value
2022-09-12T06:03:07.749Z,1003.61
2022-09-12T06:04:07.759Z,1003.59
2022-09-12T06:05:07.718Z,1003.62
2022-09-12T06:06:07.708Z,1003.62
2022-09-12T06:07:07.691Z,1003.60
2022-09-12T06:08:07.675Z,1003.57
2022-09-12T06:09:07.691Z,1003.55
2022-09-12T06:10:07.647Z,1003.56
2022-09-12T06:11:07.631Z,1003.53
2022-09-12T06:12:07.651Z,1003.57
2022-09-12T06:13:07.602Z,1003.56
2022-09-12T06:14:07.593Z,1003.53
2022-09-12T06:15:07.577Z,1003.56
2022-09-12T06:16:07.565Z,1003.52
2022-09-12T06:17:07.575Z,1003.51
2022-09-12T06:18:07.539Z,1003.50
2022-09-12T06:19:07.529Z,1003.52
2022-09-12T06:20:07.508Z,1003.49
2022-09-12T06:21:07.500Z,1003.48
2022-09-12T06:22:07.505Z,1003.46
2022-09-12T06:23:07.468Z,1003.46
2022-09-12T06:24:07.455Z,1003.42
2022-09-12T06:25:07.449Z,1003.42
2022-09-12T06:26:07.424Z,1003.37
2022-09-12T06:27:07.455Z,1003.41
2022-09-12T06:28:07.403Z,1003.39
2022-09-12T06:29:07.385Z,1003.39
2022-09-12T06:30:07.371Z,1003.32
2022-09-12T06:31:07.445Z,1003.38
2022-09-12T06:32:07.343Z,1003.34
2022-09-12T06:33:07.390Z,1003.33
2022-09-12T06:34:07.328Z,1003.35
2022-09-12T06:35:07.309Z,1003.36
2022-09-12T06:36:12.076Z,1003.37
2022-09-12T06:37:07.290Z,1003.37
2022-09-12T06:38:07.262Z,1003.37
2022-09-12T06:39:07.257Z,1003.36
2022-09-12T06:40:07.270Z,1003.38
2022-09-12T06:41:07.223Z,1003.37
2022-09-12T06:42:07.208Z,1003.36
2022-09-12T06:43:07.189Z,1003.36
2022-09-12T06:44:07.211Z,1003.36
2022-09-12T06:45:07.165Z,1003.39
2022-09-12T06:46:07.191Z,1003.36
2022-09-12T06:47:07.155Z,1003.36
2022-09-12T06:48:07.126Z,1003.38
2022-09-12T06:49:07.137Z,1003.39
2022-09-12T06:50:07.380Z,1003.42
2022-09-12T06:51:07.086Z,1003.44
2022-09-12T06:52:07.073Z,1003.42
2022-09-12T06:53:07.060Z,1003.44
2022-09-12T06:54:07.045Z,1003.40
2022-09-12T06:55:07.039Z,1003.43
2022-09-12T06:56:07.146Z,1003.41
2022-09-12T06:57:06.999Z,1003.45
2022-09-12T06:58:06.995Z,1003.46
2022-09-12T06:59:06.976Z,1003.41
2022-09-12T07:00:06.964Z,1003.46
2022-09-12T07:01:06.980Z,1003.41
2022-09-12T07:02:06.990Z,1003.42
2022-09-12T07:03:06.920Z,1003.43
2022-09-12T07:04:06.922Z,1003.39
2022-09-12T07:05:06.892Z,1003.44
2022-09-12T07:06:06.908Z,1003.41
2022-09-12T07:07:06.924Z,1003.45
2022-09-12T07:08:06.855Z,1003.41
2022-09-12T07:09:06.837Z,1003.45
2022-09-12T07:10:06.989Z,1003.43
2022-09-12T07:11:06.811Z,1003.41
2022-09-12T07:12:06.934Z,1003.44
2022-09-12T07:13:06.785Z,1003.48
2022-09-12T07:14:06.778Z,1003.43
2022-09-12T07:15:06.764Z,1003.41
2022-09-12T07:16:06.745Z,1003.45
2022-09-12T07:17:06.958Z,1003.43
2022-09-12T07:18:06.721Z,1003.43
2022-09-12T07:19:06.704Z,1003.43
2022-09-12T07:20:06.699Z,1003.43
2022-09-12T07:21:06.676Z,1003.44
2022-09-12T07:22:06.665Z,1003.44
2022-09-12T07:23:06.709Z,1003.46
2022-09-12T07:24:06.660Z,1003.49
2022-09-12T07:25:06.628Z,1003.52
2022-09-12T07:26:06.616Z,1003.52
2022-09-12T07:27:06.622Z,1003.51
2022-09-12T07:28:06.616Z,1003.51
2022-09-12T07:29:35.438Z,1003.48
2022-09-12T07:30:06.586Z,1003.51
2022-09-12T07:31:06.604Z,1003.53
2022-09-12T07:32:06.532Z,1003.51
2022-09-12T07:33:06.517Z,1003.46
2022-09-12T07:34:06.646Z,1003.51
2022-09-12T07:35:06.499Z,1003.53
2022-09-12T07:36:06.483Z,1003.50
2022-09-12T07:37:06.491Z,1003.52
2022-09-12T07:38:06.453Z,1003.50
2022-09-12T07:39:06.449Z,1003.51
2022-09-12T07:40:06.513Z,1003.52
2022-09-12T07:41:06.412Z,1003.50
2022-09-12T07:42:06.402Z,1003.50
2022-09-12T07:43:06.384Z,1003.49
2022-09-12T07:44:06.375Z,1003.50
2022-09-12T07:45:06.391Z,1003.47
2022-09-12T07:46:06.380Z,1003.42
2022-09-12T07:47:06.359Z,1003.45
2022-09-12T07:48:06.322Z,1003.45
2022-09-12T07:49:07.530Z,1003.41
2022-09-12T07:50:06.302Z,1003.41
2022-09-12T07:51:06.285Z,1003.37
2022-09-12T07:52:06.284Z,1003.37
2022-09-12T07:53:06.254Z,1003.40
2022-09-12T07:54:06.239Z,1003.40
2022-09-12T07:55:06.239Z,1003.40
2022-09-12T07:56:06.221Z,1003.46
2022-09-12T07:57:06.202Z,1003.45
2022-09-12T07:58:06.217Z,1003.47
2022-09-12T07:59:06.240Z,1003.49
2022-09-12T08:00:06.166Z,1003.46
2022-09-12T08:01:06.202Z,1003.46
2022-09-12T08:02:06.226Z,1003.46
2022-09-12T08:03:06.146Z,1003.47
2022-09-12T08:04:06.117Z,1003.47
2022-09-12T08:05:06.127Z,1003.47
2022-09-12T08:06:06.097Z,1003.48
2022-09-12T08:07:06.076Z,1003.45
2022-09-12T08:08:06.075Z,1003.44
2022-09-12T08:09:06.057Z,1003.47
2022-09-12T08:10:06.035Z,1003.49
2022-09-12T08:11:06.074Z,1003.49
2022-09-12T08:12:06.013Z,1003.48
2022-09-12T08:13:06.004Z,1003.51
2022-09-12T08:14:05.993Z,1003.50
2022-09-12T08:15:05.978Z,1003.49
2022-09-12T08:16:06.057Z,1003.48
2022-09-12T08:17:05.975Z,1003.49
2022-09-12T08:18:05.955Z,1003.49
2022-09-12T08:19:05.924Z,1003.48
2022-09-12T08:20:05.908Z,1003.49
2022-09-12T08:21:05.923Z,1003.49
2022-09-12T08:22:05.918Z,1003.48
2022-09-12T08:23:05.877Z,1003.47
2022-09-12T08:24:05.884Z,1003.47
2022-09-12T08:25:05.848Z,1003.50
2022-09-12T08:26:06.462Z,1003.50
2022-09-12T08:27:05.951Z,1003.51
2022-09-12T08:28:05.811Z,1003.50
2022-09-12T08:29:05.801Z,1003.48
2022-09-12T08:30:05.786Z,1003.50
2022-09-12T08:31:05.869Z,1003.54
2022-09-12T08:32:05.953Z,1003.51
2022-09-12T08:33:05.749Z,1003.50
2022-09-12T08:34:05.767Z,1003.48
2022-09-12T08:35:05.728Z,1003.46
2022-09-12T08:36:05.710Z,1003.45
2022-09-12T08:37:05.713Z,1003.46
2022-09-12T08:38:05.724Z,1003.45
2022-09-12T08:39:05.687Z,1003.44
2022-09-12T08:40:05.717Z,1003.44
2022-09-12T08:41:05.653Z,1003.44
2022-09-12T08:42:05.692Z,1003.45
2022-09-12T08:43:05.659Z,1003.42
2022-09-12T08:44:05.609Z,1003.42
2022-09-12T08:45:05.599Z,1003.39
2022-09-12T08:46:05.630Z,1003.42
2022-09-12T08:47:05.617Z,1003.43
2022-09-12T08:48:05.569Z,1003.41
2022-09-12T08:49:05.551Z,1003.43
2022-09-12T08:50:05.541Z,1003.39
2022-09-12T08:51:05.543Z,1003.40
2022-09-12T08:52:05.556Z,1003.41
2022-09-12T08:53:05.518Z,1003.40
2022-09-12T08:54:05.490Z,1003.40
2022-09-12T08:55:05.481Z,1003.39
2022-09-12T08:56:05.483Z,1003.37
2022-09-12T08:57:05.590Z,1003.36
2022-09-12T08:58:05.440Z,1003.38
2022-09-12T08:59:05.444Z,1003.37
2022-09-12T09:00:05.429Z,1003.36
2022-09-12T09:01:05.454Z,1003.38
2022-09-12T09:02:05.517Z,1003.36
2022-09-12T09:03:05.398Z,1003.32
2022-09-12T09:04:05.369Z,1003.34
2022-09-12T09:05:05.358Z,1003.32
2022-09-12T09:06:05.344Z,1003.33
2022-09-12T09:07:05.337Z,1003.32
2022-09-12T09:08:05.322Z,1003.31
2022-09-12T09:09:05.308Z,1003.31
2022-09-12T09:10:05.313Z,1003.32
2022-09-12T09:11:05.329Z,1003.27
2022-09-12T09:12:05.319Z,1003.25
2022-09-12T09:13:05.319Z,1003.24
2022-09-12T09:14:05.625Z,1003.21
2022-09-12T09:15:05.250Z,1003.23
2022-09-12T09:16:05.324Z,1003.18
2022-09-12T09:17:05.222Z,1003.18
2022-09-12T09:18:05.202Z,1003.18
2022-09-12T09:19:05.223Z,1003.16
2022-09-12T09:20:05.183Z,1003.21
2022-09-12T09:21:05.174Z,1003.19
2022-09-12T09:22:05.155Z,1003.21
2022-09-12T09:23:05.192Z,1003.20
2022-09-12T09:24:05.198Z,1003.16
2022-09-12T09:25:05.132Z,1003.16
2022-09-12T09:26:05.129Z,1003.16
2022-09-12T09:27:14.320Z,1003.13
2022-09-12T09:28:05.086Z,1003.15
2022-09-12T09:29:05.094Z,1003.17
2022-09-12T09:30:05.093Z,1003.17
2022-09-12T09:31:05.130Z,1003.15
2022-09-12T09:32:05.045Z,1003.13
2022-09-12T09:33:05.033Z,1003.13
2022-09-12T09:34:05.045Z,1003.14
2022-09-12T09:35:05.010Z,1003.15
2022-09-12T09:36:05.015Z,1003.15
2022-09-12T09:37:04.987Z,1003.14
2022-09-12T09:38:04.970Z,1003.10
2022-09-12T09:39:05.009Z,1003.12
2022-09-12T09:40:05.025Z,1003.09
2022-09-12T09:41:05.040Z,1003.08
2022-09-12T09:42:04.927Z,1003.11
2022-09-12T09:43:04.934Z,1003.07
2022-09-12T09:44:05.029Z,1003.06
2022-09-12T09:45:04.938Z,1003.09
2022-09-12T09:46:04.956Z,1003.09
2022-09-12T09:47:04.875Z,1003.06
2022-09-12T09:48:04.856Z,1003.12
2022-09-12T09:49:04.860Z,1003.09
2022-09-12T09:50:04.854Z,1003.09
2022-09-12T09:51:04.829Z,1003.09
2022-09-12T09:52:04.814Z,1003.06
2022-09-12T09:53:04.805Z,1003.10
2022-09-12T09:54:04.793Z,1003.03
2022-09-12T09:55:04.781Z,1003.03
2022-09-12T09:56:04.797Z,1003.04
2022-09-12T09:57:04.946Z,1003.01
2022-09-12T09:58:04.799Z,1003.04
2022-09-12T09:59:04.784Z,1003.02
2022-09-12T10:00:04.722Z,1003.03
2022-09-12T10:01:04.788Z,1002.93
2022-09-12T10:02:04.798Z,1002.95
2022-09-12T10:03:04.865Z,1002.92
2022-09-12T10:04:04.679Z,1002.95
2022-09-12T10:05:04.668Z,1002.93
2022-09-12T10:06:04.651Z,1002.92
2022-09-12T10:07:04.657Z,1002.90
2022-09-12T10:08:04.653Z,1002.91
2022-09-12T10:09:04.663Z,1002.86
2022-09-12T10:10:04.612Z,1002.86
2022-09-12T10:11:04.602Z,1002.86
2022-09-12T10:12:04.609Z,1002.85
2022-09-12T10:13:04.605Z,1002.91
2022-09-12T10:14:04.572Z,1002.90
2022-09-12T10:15:04.577Z,1002.92
2022-09-12T10:16:04.594Z,1002.91
2022-09-12T10:17:04.534Z,1002.89
2022-09-12T10:18:04.522Z,1002.83
2022-09-12T10:19:04.557Z,1002.87
2022-09-12T10:20:20.929Z,1002.80
2022-09-12T10:21:04.491Z,1002.87
2022-09-12T10:22:04.490Z,1002.84
2022-09-12T10:23:04.479Z,1002.83
2022-09-12T10:24:04.504Z,1002.83
2022-09-12T10:25:04.473Z,1002.79
2022-09-12T10:26:04.438Z,1002.84
2022-09-12T10:27:04.426Z,1002.82
2022-09-12T10:28:04.413Z,1002.79
2022-09-12T10:29:04.419Z,1002.75
2022-09-12T10:30:04.417Z,1002.80
2022-09-12T10:31:04.442Z,1002.74
2022-09-12T10:32:04.371Z,1002.76
2022-09-12T10:33:04.359Z,1002.75
2022-09-12T10:34:04.355Z,1002.78
2022-09-12T10:35:04.541Z,1002.75
2022-09-12T10:36:04.338Z,1002.74
2022-09-12T10:37:04.318Z,1002.74
2022-09-12T10:38:04.318Z,1002.72
2022-09-12T10:39:04.311Z,1002.72
2022-09-12T10:40:04.329Z,1002.71
2022-09-12T10:41:04.279Z,1002.69
2022-09-12T10:42:04.278Z,1002.71
2022-09-12T10:43:04.255Z,1002.72
2022-09-12T10:44:04.244Z,1002.65
2022-09-12T10:45:04.266Z,1002.66
2022-09-12T10:46:04.264Z,1002.67
2022-09-12T10:47:04.223Z,1002.70
2022-09-12T10:48:07.506Z,1002.73
2022-09-12T10:49:04.188Z,1002.69
2022-09-12T10:50:04.191Z,1002.68
2022-09-12T10:51:04.177Z,1002.67
2022-09-12T10:52:04.160Z,1002.66
2022-09-12T10:53:04.217Z,1002.66
2022-09-12T10:54:04.133Z,1002.63
2022-09-12T10:55:04.126Z,1002.65
2022-09-12T10:56:04.128Z,1002.63
2022-09-12T10:57:04.109Z,1002.61
2022-09-12T10:58:04.132Z,1002.62
2022-09-12T10:59:04.086Z,1002.55
2022-09-12T11:00:04.076Z,1002.59
2022-09-12T11:01:04.098Z,1002.53
2022-09-12T11:02:04.141Z,1002.53
2022-09-12T11:03:04.075Z,1002.49
2022-09-12T11:04:04.032Z,1002.46
2022-09-12T11:05:04.029Z,1002.49
2022-09-12T11:06:04.013Z,1002.46
2022-09-12T11:07:04.013Z,1002.48
2022-09-12T11:08:04.008Z,1002.44
2022-09-12T11:09:03.996Z,1002.48
2022-09-12T11:10:04.027Z,1002.47
2022-09-12T11:11:03.965Z,1002.41
2022-09-12T11:12:03.951Z,1002.38
2022-09-12T11:13:03.948Z,1002.34
2022-09-12T11:14:03.930Z,1002.28
2022-09-12T11:15:03.923Z,1002.31
2022-09-12T11:16:03.962Z,1002.30
2022-09-12T11:17:03.903Z,1002.35
2022-09-12T11:18:03.896Z,1002.31
2022-09-12T11:19:03.896Z,1002.28
2022-09-12T11:20:03.895Z,1002.29
2022-09-12T11:21:03.882Z,1002.30
2022-09-12T11:22:03.855Z,1002.32
2022-09-12T11:23:03.887Z,1002.28
2022-09-12T11:24:03.832Z,1002.27
2022-09-12T11:25:03.826Z,1002.29
2022-09-12T11:26:03.823Z,1002.24
2022-09-12T11:27:03.800Z,1002.27
2022-09-12T11:28:03.918Z,1002.30
2022-09-12T11:29:03.778Z,1002.23
2022-09-12T11:30:03.766Z,1002.26
2022-09-12T11:31:03.877Z,1002.28
2022-09-12T11:32:03.749Z,1002.28
2022-09-12T11:33:03.739Z,1002.26
2022-09-12T11:34:03.888Z,1002.24
2022-09-12T11:35:03.722Z,1002.24
2022-09-12T11:36:03.720Z,1002.25
2022-09-12T11:37:07.431Z,1002.24
2022-09-12T11:38:03.696Z,1002.23
2022-09-12T11:39:03.696Z,1002.25
2022-09-12T11:40:03.759Z,1002.19
2022-09-12T11:41:03.663Z,1002.22
2022-09-12T11:42:03.651Z,1002.24
2022-09-12T11:43:03.648Z,1002.22
2022-09-12T11:44:03.631Z,1002.21
2022-09-12T11:45:03.674Z,1002.17
2022-09-12T11:46:03.660Z,1002.20
2022-09-12T11:47:03.612Z,1002.16
2022-09-12T11:48:03.589Z,1002.15
2022-09-12T11:49:03.584Z,1002.21
2022-09-12T11:50:03.570Z,1002.14
2022-09-12T11:51:03.728Z,1002.15
2022-09-12T11:52:03.554Z,1002.17
2022-09-12T11:53:03.540Z,1002.10
2022-09-12T11:54:03.531Z,1002.09
2022-09-12T11:55:03.524Z,1002.09
2022-09-12T11:56:03.510Z,1002.10
2022-09-12T11:57:03.525Z,1002.07
2022-09-12T11:58:03.489Z,1002.04
2022-09-12T11:59:03.491Z,1002.02
2022-09-12T12:00:03.470Z,1002.04
2022-09-12T12:01:03.587Z,1002.03
2022-09-12T12:02:03.492Z,1002.02
2022-09-12T12:03:03.444Z,1002.05
2022-09-12T12:04:03.486Z,1002.06
2022-09-12T12:05:03.437Z,1002.01
2022-09-12T12:06:03.416Z,1002.00
2022-09-12T12:07:03.414Z,1001.98
2022-09-12T12:08:03.406Z,1001.93
2022-09-12T12:09:03.383Z,1001.94
2022-09-12T12:10:03.386Z,1001.90
2022-09-12T12:11:03.363Z,1001.92
2022-09-12T12:12:03.362Z,1001.85
2022-09-12T12:13:03.367Z,1001.95
2022-09-12T12:14:03.334Z,1001.89
2022-09-12T12:15:03.327Z,1001.92
2022-09-12T12:16:03.465Z,1001.88
2022-09-12T12:17:03.469Z,1001.90
2022-09-12T12:18:03.299Z,1001.94
2022-09-12T12:19:06.382Z,1001.91
2022-09-12T12:20:07.393Z,1001.93
2022-09-12T12:21:03.266Z,1001.96
2022-09-12T12:22:03.255Z,1001.92
2022-09-12T12:23:03.249Z,1001.88
2022-09-12T12:24:03.238Z,1001.91
2022-09-12T12:25:03.245Z,1001.90
2022-09-12T12:26:03.246Z,1001.90
2022-09-12T12:27:03.209Z,1001.88
2022-09-12T12:28:03.230Z,1001.82
2022-09-12T12:29:03.190Z,1001.82
2022-09-12T12:30:03.190Z,1001.80
2022-09-12T12:31:03.291Z,1001.82
2022-09-12T12:32:03.164Z,1001.82
2022-09-12T12:33:03.294Z,1001.82
2022-09-12T12:34:03.140Z,1001.84
2022-09-12T12:35:03.127Z,1001.84
2022-09-12T12:36:03.121Z,1001.84
2022-09-12T12:37:07.210Z,1001.78
2022-09-12T12:38:03.103Z,1001.78
2022-09-12T12:39:03.091Z,1001.74
2022-09-12T12:40:03.208Z,1001.72
2022-09-12T12:41:03.073Z,1001.72
2022-09-12T12:42:03.090Z,1001.67
2022-09-12T12:43:03.074Z,1001.69
2022-09-12T12:44:03.049Z,1001.71
2022-09-12T12:45:03.071Z,1001.68
2022-09-12T12:46:03.130Z,1001.67
2022-09-12T12:47:03.014Z,1001.65
2022-09-12T12:48:07.604Z,1001.64
2022-09-12T12:49:03.002Z,1001.67
2022-09-12T12:50:03.013Z,1001.68
2022-09-12T12:51:02.975Z,1001.64
2022-09-12T12:52:02.971Z,1001.63
2022-09-12T12:53:02.958Z,1001.64
2022-09-12T12:54:02.954Z,1001.60
2022-09-12T12:55:02.945Z,1001.55
2022-09-12T12:56:02.931Z,1001.56
2022-09-12T12:57:02.925Z,1001.57
2022-09-12T12:58:02.913Z,1001.54
2022-09-12T12:59:02.904Z,1001.51
2022-09-12T13:00:02.895Z,1001.47
2022-09-12T13:01:02.893Z,1001.44
2022-09-12T13:02:02.927Z,1001.46
2022-09-12T13:03:02.914Z,1001.40
2022-09-12T13:04:02.858Z,1001.33
2022-09-12T13:05:02.852Z,1001.40
2022-09-12T13:06:02.840Z,1001.40
2022-09-12T13:07:07.754Z,1001.37
2022-09-12T13:08:02.849Z,1001.37
2022-09-12T13:09:02.813Z,1001.33
2022-09-12T13:10:02.816Z,1001.34
2022-09-12T13:11:02.807Z,1001.33
2022-09-12T13:12:02.785Z,1001.30
2022-09-12T13:13:02.843Z,1001.31
2022-09-12T13:14:02.767Z,1001.29
2022-09-12T13:15:02.782Z,1001.24
2022-09-12T13:16:02.801Z,1001.21
2022-09-12T13:17:02.738Z,1001.17
2022-09-12T13:18:02.754Z,1001.14
2022-09-12T13:19:02.720Z,1001.14
2022-09-12T13:20:26.050Z,1001.11
2022-09-12T13:21:02.705Z,1001.07
2022-09-12T13:22:02.701Z,1001.10
2022-09-12T13:23:02.743Z,1001.06
2022-09-12T13:24:02.682Z,1001.06
2022-09-12T13:25:02.678Z,1001.02
2022-09-12T13:26:02.656Z,1000.99
2022-09-12T13:27:02.663Z,1000.98
2022-09-12T13:28:02.663Z,1000.98
2022-09-12T13:29:02.653Z,1000.98
2022-09-12T13:30:02.624Z,1000.95
2022-09-12T13:31:02.651Z,1000.96
2022-09-12T13:32:02.604Z,1000.97
2022-09-12T13:33:02.599Z,1000.96
2022-09-12T13:34:02.616Z,1000.96
2022-09-12T13:35:02.578Z,1000.96
2022-09-12T13:36:02.567Z,1000.92
2022-09-12T13:37:02.559Z,1000.93
2022-09-12T13:38:02.565Z,1000.92
2022-09-12T13:39:02.569Z,1000.92
2022-09-12T13:40:02.554Z,1000.94
2022-09-12T13:41:02.520Z,1000.98
2022-09-12T13:42:02.523Z,1000.97
2022-09-12T13:43:02.505Z,1000.99
2022-09-12T13:44:02.501Z,1000.95
2022-09-12T13:45:02.631Z,1000.96
2022-09-12T13:46:02.521Z,1000.92
2022-09-12T13:47:02.475Z,1000.86
2022-09-12T13:48:02.465Z,1000.92
2022-09-12T13:49:02.452Z,1000.87
2022-09-12T13:50:02.446Z,1000.87
2022-09-12T13:51:02.447Z,1000.82
2022-09-12T13:52:02.436Z,1000.85
2022-09-12T13:53:02.420Z,1000.87
2022-09-12T13:54:02.421Z,1000.86
2022-09-12T13:55:02.434Z,1000.86
2022-09-12T13:56:02.403Z,1000.88
2022-09-12T13:57:02.387Z,1000.89
2022-09-12T13:58:02.381Z,1000.88
2022-09-12T13:59:02.386Z,1000.85
2022-09-12T14:00:02.358Z,1000.78
2022-09-12T14:01:02.373Z,1000.82
2022-09-12T14:02:02.408Z,1000.72
2022-09-12T14:03:02.346Z,1000.69
2022-09-12T14:04:02.328Z,1000.66
2022-09-12T14:05:02.323Z,1000.67
2022-09-12T14:06:02.355Z,1000.63
2022-09-12T14:07:02.304Z,1000.64
2022-09-12T14:08:02.330Z,1000.67
2022-09-12T14:09:02.283Z,1000.64
2022-09-12T14:10:02.285Z,1000.61
2022-09-12T14:11:02.265Z,1000.59
2022-09-12T14:12:02.268Z,1000.60
2022-09-12T14:13:02.287Z,1000.64
2022-09-12T14:14:02.282Z,1000.59
2022-09-12T14:15:02.298Z,1000.59
2022-09-12T14:16:02.281Z,1000.62
2022-09-12T14:17:02.221Z,1000.57
2022-09-12T14:18:02.215Z,1000.56
2022-09-12T14:19:02.211Z,1000.54
2022-09-12T14:20:02.214Z,1000.54
2022-09-12T14:21:02.189Z,1000.52
2022-09-12T14:22:02.181Z,1000.51
2022-09-12T14:23:02.172Z,1000.46
2022-09-12T14:24:02.407Z,1000.46
2022-09-12T14:25:02.164Z,1000.43
2022-09-12T14:26:02.208Z,1000.40
2022-09-12T14:27:02.160Z,1000.42
2022-09-12T14:28:02.141Z,1000.43
2022-09-12T14:29:02.176Z,1000.42
2022-09-12T14:30:02.123Z,1000.43
2022-09-12T14:31:02.183Z,1000.38
2022-09-12T14:32:02.118Z,1000.37
2022-09-12T14:33:02.142Z,1000.39
2022-09-12T14:34:02.126Z,1000.32
2022-09-12T14:35:02.086Z,1000.32
2022-09-12T14:36:02.081Z,1000.27
2022-09-12T14:37:02.074Z,1000.31
2022-09-12T14:38:02.069Z,1000.25
2022-09-12T14:39:02.086Z,1000.25
2022-09-12T14:40:02.179Z,1000.24
2022-09-12T14:41:02.081Z,1000.27
2022-09-12T14:42:02.036Z,1000.29
2022-09-12T14:43:02.058Z,1000.28
2022-09-12T14:44:02.155Z,1000.30
2022-09-12T14:45:02.011Z,1000.25
2022-09-12T14:46:02.082Z,1000.26
2022-09-12T14:47:02.042Z,1000.23
2022-09-12T14:48:01.994Z,1000.21
2022-09-12T14:49:01.999Z,1000.17
2022-09-12T14:50:02.007Z,1000.19
2022-09-12T14:51:01.996Z,1000.17
2022-09-12T14:52:02.093Z,1000.18
2022-09-12T14:53:01.981Z,1000.18
2022-09-12T14:54:01.951Z,1000.18
2022-09-12T14:55:01.940Z,1000.17
2022-09-12T14:56:02.073Z,1000.15
2022-09-12T14:57:01.927Z,1000.15
2022-09-12T14:58:01.918Z,1000.18
2022-09-12T14:59:02.009Z,1000.19
2022-09-12T15:00:01.947Z,1000.17
2022-09-12T15:01:01.948Z,1000.15
2022-09-12T15:02:01.923Z,1000.16
2022-09-12T15:03:01.907Z,1000.13
2022-09-12T15:04:01.912Z,1000.14
2022-09-12T15:05:01.879Z,1000.10
2022-09-12T15:06:01.870Z,1000.06
2022-09-12T15:07:01.885Z,1000.01
2022-09-12T15:08:01.895Z,1000.00
2022-09-12T15:09:02.034Z,999.99
2022-09-12T15:10:01.915Z,999.99
2022-09-12T15:11:01.837Z,999.96
2022-09-12T15:12:01.853Z,999.94
2022-09-12T15:13:01.828Z,999.91
2022-09-12T15:14:01.838Z,999.90
2022-09-12T15:15:01.798Z,999.92
2022-09-12T15:16:01.828Z,999.93
2022-09-12T15:17:01.782Z,999.94
2022-09-12T15:18:06.246Z,999.91
2022-09-12T15:19:01.771Z,999.92
2022-09-12T15:20:01.868Z,999.91
2022-09-12T15:21:01.760Z,999.88
2022-09-12T15:22:01.779Z,999.88
2022-09-12T15:23:01.767Z,999.90
2022-09-12T15:24:01.750Z,999.90
2022-09-12T15:25:01.728Z,999.92
2022-09-12T15:26:01.756Z,999.91
2022-09-12T15:27:01.714Z,999.91
2022-09-12T15:28:01.710Z,999.91
2022-09-12T15:29:01.699Z,999.90
2022-09-12T15:30:01.693Z,999.91
2022-09-12T15:31:01.760Z,999.84
2022-09-12T15:32:01.712Z,999.80
2022-09-12T15:33:01.680Z,999.84
2022-09-12T15:34:01.663Z,999.82
2022-09-12T15:35:01.661Z,999.85
2022-09-12T15:36:01.653Z,999.82
2022-09-12T15:37:01.670Z,999.87
2022-09-12T15:38:01.634Z,999.89
2022-09-12T15:39:01.630Z,999.84
2022-09-12T15:40:01.709Z,999.83
2022-09-12T15:41:01.612Z,999.91
2022-09-12T15:42:01.689Z,999.85
2022-09-12T15:43:01.629Z,999.87
2022-09-12T15:44:01.599Z,999.87
2022-09-12T15:45:02.722Z,999.88
2022-09-12T15:46:01.654Z,999.87
2022-09-12T15:47:01.687Z,999.86
2022-09-12T15:48:01.599Z,999.84
2022-09-12T15:49:01.554Z,999.83
2022-09-12T15:50:01.549Z,999.81
2022-09-12T15:51:01.536Z,999.79
2022-09-12T15:52:01.533Z,999.81
2022-09-12T15:53:01.541Z,999.86
2022-09-12T15:54:01.514Z,999.83
2022-09-12T15:55:01.506Z,999.85
2022-09-12T15:56:01.521Z,999.83
2022-09-12T15:57:01.491Z,999.78
2022-09-12T15:58:06.361Z,999.81
2022-09-12T15:59:01.471Z,999.75
2022-09-12T16:00:01.466Z,999.80
2022-09-12T16:01:01.597Z,999.82
2022-09-12T16:02:01.535Z,999.83
2022-09-12T16:03:01.533Z,999.81
2022-09-12T16:04:01.435Z,999.82
2022-09-12T16:05:01.428Z,999.79
2022-09-12T16:06:01.415Z,999.84
2022-09-12T16:07:01.411Z,999.79
2022-09-12T16:08:01.406Z,999.81
2022-09-12T16:09:01.394Z,999.78
2022-09-12T16:10:01.385Z,999.79
2022-09-12T16:11:01.381Z,999.76
2022-09-12T16:12:01.378Z,999.75
2022-09-12T16:13:01.359Z,999.71
2022-09-12T16:14:01.357Z,999.67
2022-09-12T16:15:01.344Z,999.65
2022-09-12T16:16:01.446Z,999.62
2022-09-12T16:17:01.328Z,999.65
2022-09-12T16:18:01.479Z,999.64
2022-09-12T16:19:01.313Z,999.62
2022-09-12T16:20:01.309Z,999.58
2022-09-12T16:21:01.294Z,999.63
2022-09-12T16:22:01.287Z,999.61
2022-09-12T16:23:01.276Z,999.60
2022-09-12T16:24:01.276Z,999.63
2022-09-12T16:25:01.264Z,999.61
2022-09-12T16:26:01.262Z,999.58
2022-09-12T16:27:01.564Z,999.56
2022-09-12T16:28:01.297Z,999.58
2022-09-12T16:29:01.231Z,999.56
2022-09-12T16:30:01.224Z,999.59
2022-09-12T16:31:01.253Z,999.56
2022-09-12T16:32:01.204Z,999.57
2022-09-12T16:33:01.198Z,999.52
2022-09-12T16:34:01.185Z,999.50
2022-09-12T16:35:01.179Z,999.49
2022-09-12T16:36:01.185Z,999.46
2022-09-12T16:37:01.162Z,999.46
2022-09-12T16:38:01.194Z,999.47
2022-09-12T16:39:01.152Z,999.45
2022-09-12T16:40:01.169Z,999.44
2022-09-12T16:41:01.126Z,999.45
2022-09-12T16:42:01.119Z,999.43
2022-09-12T16:43:01.183Z,999.43
2022-09-12T16:44:01.113Z,999.40
2022-09-12T16:45:01.095Z,999.45
2022-09-12T16:46:01.109Z,999.42
2022-09-12T16:47:01.074Z,999.37
2022-09-12T16:48:01.099Z,999.39
2022-09-12T16:49:01.083Z,999.34
2022-09-12T16:50:01.047Z,999.32
2022-09-12T16:51:01.038Z,999.30
2022-09-12T16:52:01.032Z,999.28
2022-09-12T16:53:01.021Z,999.28
2022-09-12T16:54:01.015Z,999.29
2022-09-12T16:55:01.004Z,999.24
2022-09-12T16:56:00.995Z,999.24
2022-09-12T16:57:01.016Z,999.22
2022-09-12T16:58:01.006Z,999.24
2022-09-12T16:59:01.002Z,999.24
2022-09-12T17:00:00.960Z,999.22
2022-09-12T17:01:00.961Z,999.24
2022-09-12T17:02:01.000Z,999.22
2022-09-12T17:03:00.999Z,999.24
2022-09-12T17:04:00.923Z,999.23
2022-09-12T17:05:00.947Z,999.22
2022-09-12T17:06:00.933Z,999.20
2022-09-12T17:07:00.899Z,999.19
2022-09-12T17:08:00.888Z,999.17
2022-09-12T17:09:00.880Z,999.14
2022-09-12T17:10:00.871Z,999.17
2022-09-12T17:11:00.889Z,999.19
2022-09-12T17:12:00.856Z,999.14
2022-09-12T17:13:00.848Z,999.15
2022-09-12T17:14:04.892Z,999.14
2022-09-12T17:15:00.898Z,999.14
2022-09-12T17:16:00.877Z,999.12
2022-09-12T17:17:00.813Z,999.13
2022-09-12T17:18:00.796Z,999.12
2022-09-12T17:19:00.803Z,999.10
2022-09-12T17:20:00.780Z,999.12
2022-09-12T17:21:00.776Z,999.12
2022-09-12T17:22:00.765Z,999.10
2022-09-12T17:23:00.757Z,999.08
2022-09-12T17:24:00.746Z,999.10
2022-09-12T17:25:00.736Z,999.04
2022-09-12T17:26:00.726Z,999.06
2022-09-12T17:27:00.744Z,999.04
2022-09-12T17:28:00.708Z,999.03
2022-09-12T17:29:00.700Z,999.03
2022-09-12T17:30:00.697Z,999.03
2022-09-12T17:31:00.734Z,999.02
2022-09-12T17:32:00.671Z,999.03
2022-09-12T17:33:00.693Z,998.97
2022-09-12T17:34:00.660Z,998.99
2022-09-12T17:35:00.661Z,998.98
2022-09-12T17:36:00.638Z,998.91
2022-09-12T17:37:00.658Z,998.97
2022-09-12T17:38:00.618Z,998.94
2022-09-12T17:39:00.655Z,998.94
2022-09-12T17:40:00.623Z,998.92
2022-09-12T17:41:00.637Z,998.93
2022-09-12T17:42:00.579Z,998.93
2022-09-12T17:43:00.575Z,998.95
2022-09-12T17:44:00.574Z,998.95
2022-09-12T17:45:00.558Z,999.02
2022-09-12T17:46:00.589Z,999.00
2022-09-12T17:47:00.540Z,998.99
2022-09-12T17:48:00.528Z,998.97
2022-09-12T17:49:00.535Z,998.95
2022-09-12T17:50:27.455Z,998.95
2022-09-12T17:51:00.497Z,998.98
2022-09-12T17:52:00.488Z,999.02
2022-09-12T17:53:00.482Z,999.01
2022-09-12T17:54:00.496Z,999.03
2022-09-12T17:55:00.463Z,999.02
2022-09-12T17:56:00.457Z,999.00
2022-09-12T17:57:00.440Z,998.97
2022-09-12T17:58:00.467Z,998.97
2022-09-12T17:59:00.429Z,998.98
2022-09-12T18:00:00.441Z,999.00
2022-09-12T18:01:00.410Z,999.01
2022-09-12T18:02:00.479Z,999.05
2022-09-12T18:03:00.468Z,999.03
2022-09-12T18:04:00.374Z,999.00
2022-09-12T18:05:00.396Z,999.02
2022-09-12T18:06:00.352Z,998.98
2022-09-12T18:07:00.420Z,998.97
2022-09-12T18:08:00.338Z,998.94
2022-09-12T18:09:00.492Z,998.96
2022-09-12T18:10:00.318Z,998.97
2022-09-12T18:11:00.327Z,998.96
2022-09-12T18:12:00.298Z,998.93
2022-09-12T18:13:00.289Z,998.93
2022-09-12T18:14:00.277Z,998.92